Time;durP1;ratioP1;P1;durP2;ratioP2;P2;SDS_P1;SDS_P2;PMS_P1;PMS_P2;Temp;Humidity;BMP_temperature;BMP_pressure;BME280_temperature;BME280_humidity;BME280_pressure;Samples;Min_cycle;Max_cycle;Signal;HPM_P1;HPM_P2
2022/07/02 00:02:23;;;;;;;;;;;21.20;78.50;;;;;;5022552;28;19947;-96
2022/07/02 00:04:57;;;;;;;;;;;21.30;80.90;;;;;;5023903;28;19993;-96
2022/07/02 00:07:22;;;;;;;;;;;21.30;81.20;;;;;;5027687;28;19941;-96
2022/07/02 00:09:48;;;;;;;;;;;21.30;81.30;;;;;;5029299;28;20034;-96
2022/07/02 00:12:14;;;;;;;;;;;21.30;80.90;;;;;;5027924;28;19951;-95
2022/07/02 00:14:39;;;;;;;;;;;21.20;79.70;;;;;;5027345;28;19940;-96
2022/07/02 00:17:05;;;;;;;;;;;21.30;78.70;;;;;;5027219;28;19973;-96
2022/07/02 00:19:30;;;;;;;;;;;21.30;78.00;;;;;;5026888;28;19940;-95
2022/07/02 00:21:57;;;;;;;;;;;21.30;78.00;;;;;;5009309;28;19985;-96
2022/07/02 00:24:23;;;;;;;;;;;21.30;77.80;;;;;;5009941;28;19949;-96
2022/07/02 00:26:52;;;;;;;;;;;21.40;79.30;;;;;;5025961;28;20006;-96
2022/07/02 00:29:31;;;;;;;;;;;21.30;80.20;;;;;;5048021;28;20101;-96
2022/07/02 00:31:57;;;;;;;;;;;21.20;80.30;;;;;;5047105;28;19942;-96
2022/07/02 00:34:25;;;;;;;;;;;21.20;79.40;;;;;;5047727;28;20356;-95
2022/07/02 00:36:50;;;;;;;;;;;21.30;79.60;;;;;;5047689;28;19951;-96
2022/07/02 00:39:16;;;;;;;;;;;21.30;79.20;;;;;;5048420;28;20317;-96
2022/07/02 00:41:43;;;;;;;;;;;21.20;79.60;;;;;;5048553;28;20315;-96
2022/07/02 00:44:09;;;;;;;;;;;21.30;80.10;;;;;;5049087;28;19950;-95
2022/07/02 00:46:36;;;;;;;;;;;21.30;79.50;;;;;;5031112;28;19948;-96
2022/07/02 00:49:02;;;;;;;;;;;21.30;79.80;;;;;;5030553;28;19949;-96
2022/07/02 00:51:27;;;;;;;;;;;21.30;79.40;;;;;;5029730;28;19975;-95
2022/07/02 00:53:53;;;;;;;;;;;21.20;78.10;;;;;;5046623;28;19958;-96
2022/07/02 00:56:19;;;;;;;;;;;21.20;79.40;;;;;;5047138;28;20462;-95
2022/07/02 00:58:45;;;;;;;;;;;21.10;80.20;;;;;;5046804;28;19981;-96
2022/07/02 01:01:11;;;;;;;;;;;21.10;80.50;;;;;;5029881;28;19949;-96
2022/07/02 01:03:37;;;;;;;;;;;21.00;80.50;;;;;;5047674;28;19939;-96
2022/07/02 01:06:03;;;;;;;;;;;20.90;80.90;;;;;;5027434;28;19934;-96
2022/07/02 01:11:14;;;;;;;;;;;20.60;80.90;;;;;;5042898;28;20031;-96
2022/07/02 01:13:39;;;;;;;;;;;20.60;81.10;;;;;;5042966;28;19980;-96
2022/07/02 01:16:05;;;;;;;;;;;20.50;81.30;;;;;;5025431;28;20054;-96
2022/07/02 01:18:31;;;;;;;;;;;20.40;81.00;;;;;;5044294;28;19961;-96
2022/07/02 01:20:57;;;;;;;;;;;20.30;81.50;;;;;;5045888;28;19946;-96
2022/07/02 01:23:22;;;;;;;;;;;20.30;80.80;;;;;;5046027;28;19973;-96
2022/07/02 01:25:49;;;;;;;;;;;20.40;81.50;;;;;;5046116;28;20001;-96
2022/07/02 01:28:15;;;;;;;;;;;20.50;81.50;;;;;;5046160;28;19936;-96
2022/07/02 01:30:40;;;;;;;;;;;20.50;81.70;;;;;;5045954;28;19978;-96
2022/07/02 01:33:06;;;;;;;;;;;20.60;81.20;;;;;;5046365;28;19944;-96
2022/07/02 01:35:32;;;;;;;;;;;20.70;80.70;;;;;;5044147;28;19944;-96
2022/07/02 01:37:57;;;;;;;;;;;20.80;80.40;;;;;;5044166;28;19968;-96
2022/07/02 01:40:23;;;;;;;;;;;20.80;78.90;;;;;;5044848;28;19944;-96
2022/07/02 01:42:49;;;;;;;;;;;20.80;78.60;;;;;;5027975;28;20038;-96
2022/07/02 01:45:14;;;;;;;;;;;20.80;77.20;;;;;;5027132;28;19945;-96
2022/07/02 01:47:40;;;;;;;;;;;20.70;77.80;;;;;;5027347;28;20321;-96
2022/07/02 01:50:06;;;;;;;;;;;20.70;77.50;;;;;;5026483;28;20004;-96
2022/07/02 01:52:31;;;;;;;;;;;20.60;79.80;;;;;;5026949;28;19942;-96
2022/07/02 01:54:57;;;;;;;;;;;20.50;83.10;;;;;;5025911;28;19941;-96
2022/07/02 01:57:23;;;;;;;;;;;20.40;84.40;;;;;;5044330;28;20318;-96
2022/07/02 01:59:48;;;;;;;;;;;20.30;85.00;;;;;;5045092;28;20048;-95
2022/07/02 02:02:14;;;;;;;;;;;20.10;84.70;;;;;;5027319;28;19942;-96
2022/07/02 02:04:39;;;;;;;;;;;20.00;85.10;;;;;;5027596;28;19947;-96
2022/07/02 02:07:05;;;;;;;;;;;20.00;85.30;;;;;;5027814;28;19950;-96
2022/07/02 02:09:31;;;;;;;;;;;19.90;85.80;;;;;;5046583;28;19974;-96
2022/07/02 02:11:57;;;;;;;;;;;19.80;86.20;;;;;;5028809;28;19953;-96
2022/07/02 02:14:23;;;;;;;;;;;19.80;85.70;;;;;;5028149;28;19944;-96
2022/07/02 02:16:48;;;;;;;;;;;19.70;84.40;;;;;;5027651;28;19951;-96
2022/07/02 02:19:14;;;;;;;;;;;19.80;83.10;;;;;;5028512;28;20020;-96
2022/07/02 02:21:40;;;;;;;;;;;19.80;84.50;;;;;;5046642;28;19950;-95
2022/07/02 02:24:06;;;;;;;;;;;19.90;83.40;;;;;;5027489;28;19950;-96
2022/07/02 02:26:31;;;;;;;;;;;19.90;80.70;;;;;;5027935;28;19980;-96
2022/07/02 02:28:57;;;;;;;;;;;20.00;81.90;;;;;;5044057;28;19942;-96
2022/07/02 02:31:23;;;;;;;;;;;20.00;81.60;;;;;;5044468;28;19945;-96
2022/07/02 02:33:48;;;;;;;;;;;20.10;80.90;;;;;;5026500;28;19968;-96
2022/07/02 02:36:14;;;;;;;;;;;20.10;81.00;;;;;;5044087;28;19939;-96
2022/07/02 02:38:40;;;;;;;;;;;20.20;82.20;;;;;;5044445;28;19997;-96
2022/07/02 02:41:07;;;;;;;;;;;20.20;83.00;;;;;;5045187;28;19941;-96
2022/07/02 02:43:33;;;;;;;;;;;20.10;82.70;;;;;;5045768;28;19943;-96
2022/07/02 02:45:59;;;;;;;;;;;20.20;82.10;;;;;;5045266;28;19944;-96
2022/07/02 02:48:24;;;;;;;;;;;20.10;81.30;;;;;;5045806;28;20307;-97
2022/07/02 02:50:50;;;;;;;;;;;20.10;81.50;;;;;;5028274;28;19947;-96
2022/07/02 02:53:16;;;;;;;;;;;20.20;81.20;;;;;;5044375;28;19949;-96
2022/07/02 02:55:42;;;;;;;;;;;20.20;81.90;;;;;;5027649;28;19964;-96
2022/07/02 02:58:08;;;;;;;;;;;20.10;81.70;;;;;;5027871;28;20025;-96
2022/07/02 03:00:34;;;;;;;;;;;20.10;82.40;;;;;;5027626;28;19941;-96
2022/07/02 03:02:59;;;;;;;;;;;20.00;82.50;;;;;;5046024;28;19939;-96
2022/07/02 03:05:25;;;;;;;;;;;20.00;82.40;;;;;;5027331;28;19946;-96
2022/07/02 03:07:51;;;;;;;;;;;20.00;82.40;;;;;;5027721;28;19943;-96
2022/07/02 03:10:17;;;;;;;;;;;20.00;82.70;;;;;;5027947;28;19955;-96
2022/07/02 03:12:43;;;;;;;;;;;20.00;81.80;;;;;;5027536;28;19947;-96
2022/07/02 03:15:08;;;;;;;;;;;20.00;82.60;;;;;;5045705;28;19954;-96
2022/07/02 03:17:34;;;;;;;;;;;19.90;82.60;;;;;;5026893;28;19960;-96
2022/07/02 03:20:00;;;;;;;;;;;19.90;82.50;;;;;;5045537;28;19944;-96
2022/07/02 03:22:25;;;;;;;;;;;19.80;82.60;;;;;;5027940;28;19949;-96
2022/07/02 03:24:51;;;;;;;;;;;19.80;82.70;;;;;;5027944;28;20058;-96
2022/07/02 03:27:17;;;;;;;;;;;19.80;83.00;;;;;;5028938;28;19958;-96
2022/07/02 03:29:43;;;;;;;;;;;19.80;83.80;;;;;;5029424;28;20030;-95
2022/07/02 03:32:08;;;;;;;;;;;19.80;84.10;;;;;;5029367;28;19950;-96
2022/07/02 03:34:34;;;;;;;;;;;19.80;84.40;;;;;;5046576;28;19977;-96
2022/07/02 03:37:00;;;;;;;;;;;19.80;84.70;;;;;;5047687;28;19941;-96
2022/07/02 03:39:25;;;;;;;;;;;19.80;84.50;;;;;;5029973;28;19944;-96
2022/07/02 03:41:51;;;;;;;;;;;19.80;84.40;;;;;;5029236;28;19978;-96
2022/07/02 03:44:17;;;;;;;;;;;19.80;84.50;;;;;;5046985;28;19941;-96
2022/07/02 03:46:43;;;;;;;;;;;19.80;83.70;;;;;;5047361;28;19985;-96
2022/07/02 03:49:08;;;;;;;;;;;19.90;84.60;;;;;;5047141;28;19955;-96
2022/07/02 03:51:34;;;;;;;;;;;20.00;84.60;;;;;;5045066;28;19936;-96
2022/07/02 03:54:00;;;;;;;;;;;19.90;84.80;;;;;;5044697;28;19943;-96
2022/07/02 03:56:25;;;;;;;;;;;19.80;85.20;;;;;;5028284;28;19946;-96
2022/07/02 03:58:51;;;;;;;;;;;19.80;85.10;;;;;;5026009;28;19976;-96
2022/07/02 04:01:17;;;;;;;;;;;19.70;85.00;;;;;;5046625;28;19953;-96
2022/07/02 04:03:42;;;;;;;;;;;19.70;85.40;;;;;;5029725;28;19970;-95
2022/07/02 04:06:08;;;;;;;;;;;19.70;85.90;;;;;;5048595;28;19941;-95
2022/07/02 04:08:34;;;;;;;;;;;19.50;85.70;;;;;;5030750;28;19943;-96
2022/07/02 04:11:00;;;;;;;;;;;19.60;86.00;;;;;;5031969;28;19953;-96
2022/07/02 04:13:26;;;;;;;;;;;19.70;85.80;;;;;;5050262;28;19948;-96
2022/07/02 04:15:54;;;;;;;;;;;19.60;85.90;;;;;;5033077;28;19948;-96
2022/07/02 04:18:20;;;;;;;;;;;19.60;85.90;;;;;;5050219;28;19957;-96
2022/07/02 04:20:46;;;;;;;;;;;19.80;85.70;;;;;;5050867;28;19946;-96
2022/07/02 04:23:12;;;;;;;;;;;19.80;85.80;;;;;;5033447;28;20026;-96
2022/07/02 04:25:38;;;;;;;;;;;19.80;85.80;;;;;;5051316;28;19962;-96
2022/07/02 04:28:04;;;;;;;;;;;19.80;85.20;;;;;;5051768;28;19938;-96
2022/07/02 04:30:30;;;;;;;;;;;19.80;83.40;;;;;;5032018;28;19947;-96
2022/07/02 04:32:56;;;;;;;;;;;19.90;82.20;;;;;;5031918;28;20003;-96
2022/07/02 04:35:21;;;;;;;;;;;20.00;82.00;;;;;;5045666;28;19941;-96
2022/07/02 04:37:47;;;;;;;;;;;20.10;81.80;;;;;;5046059;28;19969;-96
2022/07/02 04:40:13;;;;;;;;;;;20.20;80.60;;;;;;5046777;28;19948;-96
2022/07/02 04:42:38;;;;;;;;;;;20.30;80.60;;;;;;5030457;28;19963;-96
2022/07/02 04:45:04;;;;;;;;;;;20.50;82.40;;;;;;5048355;28;19992;-96
2022/07/02 04:47:30;;;;;;;;;;;20.60;81.80;;;;;;5016078;28;19996;-96
2022/07/02 04:49:56;;;;;;;;;;;20.70;82.60;;;;;;5049334;28;20023;-96
2022/07/02 04:52:22;;;;;;;;;;;20.80;83.60;;;;;;5032953;28;20354;-96
2022/07/02 04:54:48;;;;;;;;;;;20.90;83.30;;;;;;5034928;28;20356;-96
2022/07/02 04:57:17;;;;;;;;;;;20.90;83.40;;;;;;5051743;28;19992;-96
2022/07/02 04:59:45;;;;;;;;;;;21.00;82.80;;;;;;5032966;28;19987;-96
2022/07/02 05:02:11;;;;;;;;;;;21.00;82.20;;;;;;5031191;28;19954;-96
2022/07/02 05:04:37;;;;;;;;;;;21.10;81.50;;;;;;5030985;28;19946;-96
2022/07/02 05:07:03;;;;;;;;;;;21.20;81.60;;;;;;5031485;28;19950;-96
2022/07/02 05:09:29;;;;;;;;;;;21.30;80.90;;;;;;5047465;28;19965;-96
2022/07/02 05:11:55;;;;;;;;;;;21.30;79.30;;;;;;5047837;28;19941;-96
2022/07/02 05:14:21;;;;;;;;;;;21.40;80.80;;;;;;5034837;28;20082;-96
2022/07/02 05:16:46;;;;;;;;;;;21.50;82.10;;;;;;5034694;28;19948;-96
2022/07/02 05:19:12;;;;;;;;;;;21.50;81.70;;;;;;5054024;28;19989;-96
2022/07/02 05:21:43;;;;;;;;;;;21.50;80.90;;;;;;5036417;28;19953;-96
2022/07/02 05:24:10;;;;;;;;;;;21.60;81.70;;;;;;5056028;28;19945;-96
2022/07/02 05:26:36;;;;;;;;;;;21.70;81.00;;;;;;5037012;28;19959;-96
2022/07/02 05:29:05;;;;;;;;;;;21.80;80.40;;;;;;5054330;28;19952;-96
2022/07/02 05:31:31;;;;;;;;;;;21.80;80.20;;;;;;5036587;28;19969;-96
2022/07/02 05:33:57;;;;;;;;;;;21.90;79.30;;;;;;5036932;28;19951;-96
2022/07/02 05:36:24;;;;;;;;;;;22.00;79.00;;;;;;5051920;28;19974;-96
2022/07/02 05:38:49;;;;;;;;;;;22.10;77.50;;;;;;5053591;28;19990;-96
2022/07/02 05:41:16;;;;;;;;;;;22.20;76.40;;;;;;5036772;28;19941;-96
2022/07/02 05:43:42;;;;;;;;;;;22.30;75.10;;;;;;5053979;28;19958;-96
2022/07/02 05:46:07;;;;;;;;;;;22.30;75.50;;;;;;5037221;28;20034;-96
2022/07/02 05:48:35;;;;;;;;;;;22.40;75.40;;;;;;5054227;28;19951;-96
2022/07/02 05:51:01;;;;;;;;;;;22.50;74.30;;;;;;5036825;28;19954;-96
2022/07/02 05:53:27;;;;;;;;;;;22.60;73.60;;;;;;5036108;28;19950;-96
2022/07/02 05:55:53;;;;;;;;;;;22.70;74.40;;;;;;5031792;28;19949;-96
2022/07/02 05:58:19;;;;;;;;;;;22.80;74.60;;;;;;5031376;28;20031;-96
2022/07/02 06:00:44;;;;;;;;;;;22.80;72.70;;;;;;5048202;28;19946;-96
2022/07/02 06:03:10;;;;;;;;;;;22.90;73.70;;;;;;5029561;28;20319;-96
2022/07/02 06:08:20;;;;;;;;;;;23.20;69.80;;;;;;5042759;28;19943;-96
2022/07/02 06:10:46;;;;;;;;;;;23.30;69.20;;;;;;5041504;28;19943;-96
2022/07/02 06:13:11;;;;;;;;;;;23.50;69.60;;;;;;5044162;28;19943;-96
2022/07/02 06:15:37;;;;;;;;;;;23.50;70.50;;;;;;5045109;28;19978;-96
2022/07/02 06:18:03;;;;;;;;;;;23.60;70.40;;;;;;5043986;28;20450;-96
2022/07/02 06:20:29;;;;;;;;;;;23.70;70.80;;;;;;5043912;28;20318;-96
2022/07/02 06:22:55;;;;;;;;;;;23.80;70.20;;;;;;5043471;28;19943;-96
2022/07/02 06:25:20;;;;;;;;;;;23.80;70.30;;;;;;5025387;28;20051;-96
2022/07/02 06:27:46;;;;;;;;;;;23.80;70.50;;;;;;5043933;28;20348;-96
2022/07/02 06:30:12;;;;;;;;;;;23.90;70.90;;;;;;5044433;28;19976;-96
2022/07/02 06:32:37;;;;;;;;;;;24.00;70.10;;;;;;5043383;28;19940;-96
2022/07/02 06:35:03;;;;;;;;;;;24.10;69.40;;;;;;5043038;28;20048;-96
2022/07/02 06:37:29;;;;;;;;;;;24.20;68.70;;;;;;5042712;28;19989;-96
2022/07/02 06:39:55;;;;;;;;;;;24.20;68.00;;;;;;5043304;28;19987;-96
2022/07/02 06:42:22;;;;;;;;;;;24.40;67.10;;;;;;5025826;28;19984;-96
2022/07/02 06:44:52;;;;;;;;;;;24.50;67.50;;;;;;5042139;28;19934;-96
2022/07/02 06:47:17;;;;;;;;;;;24.50;66.70;;;;;;5042872;28;19950;-96
2022/07/02 06:49:43;;;;;;;;;;;24.60;65.70;;;;;;5043147;28;19987;-96
2022/07/02 06:52:09;;;;;;;;;;;24.70;64.40;;;;;;5040820;28;19942;-96
2022/07/02 06:54:35;;;;;;;;;;;24.90;63.30;;;;;;5042262;28;19991;-96
2022/07/02 06:57:01;;;;;;;;;;;25.10;63.40;;;;;;5042141;28;19948;-96
2022/07/02 06:59:27;;;;;;;;;;;25.20;61.10;;;;;;5041186;28;20322;-96
2022/07/02 07:01:53;;;;;;;;;;;25.40;60.80;;;;;;5042153;28;19940;-96
2022/07/02 07:04:18;;;;;;;;;;;25.50;61.50;;;;;;5042204;28;19948;-96
2022/07/02 07:06:51;;;;;;;;;;;25.60;62.90;;;;;;5039429;28;19963;-96
2022/07/02 07:09:17;;;;;;;;;;;25.70;62.20;;;;;;5040113;28;19974;-95
2022/07/02 07:11:43;;;;;;;;;;;25.70;62.50;;;;;;5040207;28;19951;-96
2022/07/02 07:14:08;;;;;;;;;;;25.70;61.70;;;;;;5041168;28;19968;-96
2022/07/02 07:16:34;;;;;;;;;;;25.80;60.90;;;;;;5022073;28;20314;-96
2022/07/02 07:21:25;;;;;;;;;;;25.90;59.70;;;;;;5036238;28;20006;-96
2022/07/02 07:23:51;;;;;;;;;;;26.10;60.10;;;;;;5037184;28;19983;-96
2022/07/02 07:26:17;;;;;;;;;;;26.20;58.80;;;;;;5036826;28;20379;-96
2022/07/02 07:28:42;;;;;;;;;;;26.20;58.70;;;;;;5037258;28;19942;-96
2022/07/02 07:31:08;;;;;;;;;;;26.30;59.10;;;;;;5036982;28;19980;-96
2022/07/02 07:33:34;;;;;;;;;;;26.30;59.10;;;;;;5037647;28;19935;-96
2022/07/02 07:36:00;;;;;;;;;;;26.40;58.70;;;;;;5038945;28;20360;-95
2022/07/02 07:38:25;;;;;;;;;;;26.50;58.80;;;;;;5039324;28;20018;-96
2022/07/02 07:40:51;;;;;;;;;;;26.50;61.00;;;;;;5021947;28;19946;-96
2022/07/02 07:43:17;;;;;;;;;;;26.60;59.80;;;;;;5040573;28;19946;-96
2022/07/02 07:45:43;;;;;;;;;;;26.70;57.70;;;;;;5021268;28;19973;-96
2022/07/02 07:48:08;;;;;;;;;;;26.80;56.90;;;;;;5038333;28;19953;-96
2022/07/02 07:50:34;;;;;;;;;;;26.90;56.90;;;;;;5037767;28;19947;-96
2022/07/02 07:53:00;;;;;;;;;;;27.00;55.50;;;;;;5037083;28;19976;-96
2022/07/02 07:55:26;;;;;;;;;;;27.10;56.00;;;;;;5036616;28;20402;-95
2022/07/02 07:57:52;;;;;;;;;;;27.20;55.30;;;;;;5038529;23;19985;-96
2022/07/02 08:00:17;;;;;;;;;;;27.40;54.50;;;;;;5017632;28;19939;-95
2022/07/02 08:02:43;;;;;;;;;;;27.50;52.40;;;;;;5017860;28;19939;-96
2022/07/02 08:05:09;;;;;;;;;;;27.60;53.80;;;;;;5018520;28;19947;-96
2022/07/02 08:07:38;;;;;;;;;;;27.80;53.30;;;;;;5018182;28;19940;-96
2022/07/02 08:10:06;;;;;;;;;;;27.90;54.40;;;;;;5019885;28;19943;-96
2022/07/02 08:12:32;;;;;;;;;;;27.90;53.90;;;;;;5003124;28;19956;-96
2022/07/02 08:14:59;;;;;;;;;;;28.00;53.50;;;;;;5002681;28;19955;-96
2022/07/02 08:17:25;;;;;;;;;;;28.10;55.30;;;;;;5020155;28;19965;-96
2022/07/02 08:19:51;;;;;;;;;;;28.20;54.80;;;;;;5020543;28;19963;-96
2022/07/02 08:22:17;;;;;;;;;;;28.20;53.40;;;;;;5021227;28;19942;-96
2022/07/02 08:24:43;;;;;;;;;;;28.30;53.00;;;;;;5021020;28;19938;-96
2022/07/02 08:27:08;;;;;;;;;;;28.30;54.00;;;;;;5021115;28;19960;-95
2022/07/02 08:29:34;;;;;;;;;;;28.50;53.90;;;;;;5042164;28;20317;-96
2022/07/02 08:31:59;;;;;;;;;;;28.50;53.10;;;;;;5042492;28;19940;-96
2022/07/02 08:34:25;;;;;;;;;;;28.50;53.30;;;;;;5041458;28;20011;-96
2022/07/02 08:36:51;;;;;;;;;;;28.70;55.00;;;;;;5041385;28;20021;-96
2022/07/02 08:39:16;;;;;;;;;;;28.70;56.10;;;;;;5041199;28;20018;-96
2022/07/02 08:41:43;;;;;;;;;;;28.80;55.10;;;;;;5040675;28;19940;-96
2022/07/02 08:44:10;;;;;;;;;;;28.90;53.50;;;;;;5042153;28;19936;-96
2022/07/02 08:46:38;;;;;;;;;;;28.90;53.60;;;;;;5041569;28;19941;-96
2022/07/02 08:49:04;;;;;;;;;;;28.90;52.60;;;;;;5043300;28;19944;-96
2022/07/02 08:51:30;;;;;;;;;;;28.90;51.90;;;;;;5041407;28;19990;-96
2022/07/02 08:53:55;;;;;;;;;;;28.90;51.40;;;;;;5040381;28;19941;-95
2022/07/02 08:56:21;;;;;;;;;;;28.90;51.20;;;;;;5039429;28;19943;-96
2022/07/02 08:58:50;;;;;;;;;;;29.00;51.00;;;;;;5039022;28;19976;-94
2022/07/02 09:01:15;;;;;;;;;;;29.20;52.10;;;;;;5039974;28;19949;-96
2022/07/02 09:03:42;;;;;;;;;;;29.20;51.10;;;;;;5041907;28;19939;-96
2022/07/02 09:06:08;;;;;;;;;;;29.30;50.90;;;;;;5039783;28;20404;-96
2022/07/02 09:08:34;;;;;;;;;;;29.40;51.80;;;;;;5039870;28;19945;-96
2022/07/02 09:11:00;;;;;;;;;;;29.30;51.10;;;;;;5040159;28;20292;-96
2022/07/02 09:13:26;;;;;;;;;;;29.40;52.30;;;;;;5040555;28;19939;-96
2022/07/02 09:15:52;;;;;;;;;;;29.30;53.00;;;;;;5040746;28;19943;-96
2022/07/02 09:18:18;;;;;;;;;;;29.30;51.20;;;;;;5039876;28;20449;-96
2022/07/02 09:20:44;;;;;;;;;;;29.40;52.70;;;;;;5040123;28;19942;-96
2022/07/02 09:23:10;;;;;;;;;;;29.40;54.00;;;;;;5021393;28;20428;-96
2022/07/02 09:25:37;;;;;;;;;;;29.50;53.60;;;;;;5022212;28;20030;-96
2022/07/02 09:28:04;;;;;;;;;;;29.50;53.10;;;;;;5039944;28;19981;-96
2022/07/02 09:30:31;;;;;;;;;;;29.50;54.90;;;;;;5040055;28;19943;-96
2022/07/02 09:35:59;;;;;;;;;;;29.60;51.90;;;;;;4978386;28;19940;-96
2022/07/02 09:38:24;;;;;;;;;;;29.70;52.60;;;;;;5026644;28;19997;-96
2022/07/02 09:40:51;;;;;;;;;;;29.80;53.60;;;;;;5038582;28;20331;-97
2022/07/02 09:43:27;;;;;;;;;;;29.90;54.30;;;;;;5038555;28;19942;-96
2022/07/02 09:45:53;;;;;;;;;;;30.00;53.50;;;;;;5038560;28;19935;-97
2022/07/02 09:48:18;;;;;;;;;;;30.20;52.50;;;;;;5038674;28;20061;-96
2022/07/02 09:50:44;;;;;;;;;;;30.20;51.20;;;;;;5038258;28;19948;-96
2022/07/02 09:53:11;;;;;;;;;;;30.30;49.60;;;;;;5019267;28;20015;-96
2022/07/02 09:55:37;;;;;;;;;;;30.50;48.70;;;;;;5036912;28;19991;-96
2022/07/02 09:58:04;;;;;;;;;;;30.60;50.40;;;;;;5037272;28;20019;-96
2022/07/02 10:00:31;;;;;;;;;;;30.70;49.50;;;;;;5037167;28;20580;-96
2022/07/02 10:02:57;;;;;;;;;;;30.70;48.90;;;;;;5037109;28;19967;-96
2022/07/02 10:05:27;;;;;;;;;;;30.80;49.00;;;;;;5036953;28;19943;-96
2022/07/02 10:07:57;;;;;;;;;;;30.80;46.80;;;;;;5018728;28;19963;-96
2022/07/02 10:10:41;;;;;;;;;;;30.90;46.30;;;;;;5037048;28;19979;-96
2022/07/02 10:13:11;;;;;;;;;;;30.90;46.70;;;;;;5036994;28;20396;-96
2022/07/02 10:15:39;;;;;;;;;;;31.00;49.60;;;;;;5036771;28;19998;-95
2022/07/02 10:18:06;;;;;;;;;;;31.20;47.80;;;;;;5018736;28;19963;-96
2022/07/02 10:20:33;;;;;;;;;;;31.30;49.00;;;;;;5036794;28;20288;-96
2022/07/02 10:22:59;;;;;;;;;;;31.30;46.60;;;;;;5018960;28;19941;-95
2022/07/02 10:25:25;;;;;;;;;;;31.40;45.30;;;;;;5036415;28;20019;-96
2022/07/02 10:27:51;;;;;;;;;;;31.40;45.70;;;;;;5036933;28;20322;-95
2022/07/02 10:30:20;;;;;;;;;;;31.50;45.10;;;;;;5036028;28;19950;-96
2022/07/02 10:32:57;;;;;;;;;;;31.60;47.80;;;;;;5037046;28;19945;-96
2022/07/02 10:35:23;;;;;;;;;;;31.70;43.80;;;;;;5036615;28;19986;-95
2022/07/02 10:37:54;;;;;;;;;;;31.70;42.10;;;;;;5036148;28;19970;-96
2022/07/02 10:40:20;;;;;;;;;;;31.70;42.00;;;;;;5017851;28;19956;-95
2022/07/02 10:42:48;;;;;;;;;;;31.70;41.90;;;;;;5036577;28;19938;-96
2022/07/02 10:45:23;;;;;;;;;;;31.60;43.60;;;;;;5036172;28;19952;-96
2022/07/02 10:47:54;;;;;;;;;;;31.70;45.00;;;;;;5036234;28;19942;-95
2022/07/02 10:50:24;;;;;;;;;;;31.80;42.20;;;;;;5035651;28;19949;-96
2022/07/02 10:52:51;;;;;;;;;;;31.90;44.00;;;;;;5035925;28;19945;-97
2022/07/02 10:55:27;;;;;;;;;;;32.00;44.40;;;;;;5036056;28;19990;-96
2022/07/02 10:57:56;;;;;;;;;;;32.10;44.20;;;;;;5035809;28;20023;-96
2022/07/02 11:00:26;;;;;;;;;;;32.20;44.50;;;;;;5035756;28;20005;-96
2022/07/02 11:02:51;;;;;;;;;;;32.50;46.30;;;;;;5035863;28;19941;-95
2022/07/02 11:05:17;;;;;;;;;;;32.50;41.40;;;;;;5035745;28;19937;-96
2022/07/02 11:07:43;;;;;;;;;;;32.70;41.00;;;;;;5036790;28;19946;-96
2022/07/02 11:10:09;;;;;;;;;;;32.70;42.40;;;;;;5018007;28;19965;-96
2022/07/02 11:12:43;;;;;;;;;;;32.80;39.80;;;;;;5035413;28;19940;-95
2022/07/02 11:15:15;;;;;;;;;;;32.90;40.00;;;;;;5034769;28;19957;-96
2022/07/02 11:17:44;;;;;;;;;;;33.00;41.70;;;;;;5034935;28;19969;-96
2022/07/02 11:20:10;;;;;;;;;;;33.00;41.90;;;;;;5016851;28;19951;-96
2022/07/02 11:22:35;;;;;;;;;;;33.20;43.60;;;;;;5034537;28;19944;-96
2022/07/02 11:25:01;;;;;;;;;;;33.30;41.30;;;;;;5035047;28;19952;-96
2022/07/02 11:27:27;;;;;;;;;;;33.40;41.10;;;;;;5034621;28;20315;-96
2022/07/02 11:29:53;;;;;;;;;;;33.60;37.90;;;;;;5035109;28;19942;-96
2022/07/02 11:32:19;;;;;;;;;;;33.70;38.00;;;;;;5035135;28;19942;-96
2022/07/02 11:34:45;;;;;;;;;;;33.80;36.90;;;;;;5035225;28;19951;-95
2022/07/02 11:37:22;;;;;;;;;;;34.00;38.70;;;;;;5016683;28;20029;-96
2022/07/02 11:39:48;;;;;;;;;;;34.10;38.70;;;;;;5016857;28;19956;-96
2022/07/02 11:42:14;;;;;;;;;;;34.30;39.10;;;;;;5035094;28;19939;-96
2022/07/02 11:44:39;;;;;;;;;;;34.40;38.30;;;;;;5035086;28;19967;-96
2022/07/02 11:47:05;;;;;;;;;;;34.60;38.00;;;;;;5035425;28;19946;-96
2022/07/02 11:49:34;;;;;;;;;;;34.70;36.80;;;;;;5034688;28;20305;-96
2022/07/02 11:52:00;;;;;;;;;;;34.70;37.50;;;;;;5035300;28;19941;-95
2022/07/02 11:54:26;;;;;;;;;;;34.70;37.80;;;;;;5035122;28;19947;-96
2022/07/02 11:56:52;;;;;;;;;;;34.80;37.80;;;;;;5035044;28;19940;-96
2022/07/02 11:59:19;;;;;;;;;;;35.10;40.40;;;;;;5034861;28;20029;-96
2022/07/02 12:01:48;;;;;;;;;;;35.40;40.30;;;;;;5036566;28;20510;-96
2022/07/02 12:04:18;;;;;;;;;;;35.70;38.60;;;;;;5021408;28;19941;-96
2022/07/02 12:06:46;;;;;;;;;;;36.10;36.10;;;;;;5039724;28;19944;-96
2022/07/02 12:09:13;;;;;;;;;;;36.30;32.10;;;;;;5039352;28;19941;-96
2022/07/02 12:11:40;;;;;;;;;;;36.40;31.40;;;;;;5042612;28;19946;-96
2022/07/02 12:14:06;;;;;;;;;;;36.40;33.20;;;;;;5045671;28;19948;-96
2022/07/02 12:16:33;;;;;;;;;;;36.40;32.20;;;;;;5047006;28;20404;-96
2022/07/02 12:19:06;;;;;;;;;;;36.60;32.20;;;;;;5043663;28;19955;-96
2022/07/02 12:21:31;;;;;;;;;;;36.60;31.50;;;;;;5043463;28;19943;-96
2022/07/02 12:23:57;;;;;;;;;;;36.40;31.90;;;;;;5043944;28;20282;-96
2022/07/02 12:26:23;;;;;;;;;;;36.70;32.90;;;;;;5043401;28;19957;-96
2022/07/02 12:31:40;;;;;;;;;;;36.40;31.30;;;;;;5041385;28;19954;-96
2022/07/02 12:34:06;;;;;;;;;;;36.70;33.80;;;;;;5041765;28;19946;-96
2022/07/02 12:36:32;;;;;;;;;;;37.30;31.60;;;;;;5043874;28;20291;-96
2022/07/02 12:38:58;;;;;;;;;;;37.90;33.30;;;;;;5043748;28;19960;-96
2022/07/02 12:41:23;;;;;;;;;;;38.40;30.80;;;;;;5047095;28;19959;-96
2022/07/02 12:43:53;;;;;;;;;;;38.70;28.80;;;;;;5028177;28;19955;-96
2022/07/02 12:46:19;;;;;;;;;;;38.80;31.60;;;;;;5048622;28;20279;-96
2022/07/02 12:48:45;;;;;;;;;;;39.40;27.80;;;;;;5029961;28;19958;-96
2022/07/02 12:51:12;;;;;;;;;;;39.70;27.50;;;;;;5047872;28;19951;-96
2022/07/02 12:53:38;;;;;;;;;;;40.10;27.70;;;;;;5028780;28;19947;-96
2022/07/02 12:56:04;;;;;;;;;;;40.00;28.70;;;;;;5047812;28;19985;-96
2022/07/02 12:58:30;;;;;;;;;;;40.20;28.00;;;;;;5028967;28;20084;-96
2022/07/02 13:00:57;;;;;;;;;;;40.60;26.20;;;;;;5046388;28;19990;-96
2022/07/02 13:03:24;;;;;;;;;;;40.80;27.20;;;;;;5045009;28;20364;-96
2022/07/02 13:05:51;;;;;;;;;;;41.00;26.90;;;;;;5046319;28;19973;-96
2022/07/02 13:08:20;;;;;;;;;;;41.40;24.90;;;;;;5045800;28;19939;-96
2022/07/02 13:10:46;;;;;;;;;;;41.90;23.70;;;;;;5026084;28;19995;-96
2022/07/02 13:13:12;;;;;;;;;;;42.00;23.90;;;;;;5042654;28;20031;-96
2022/07/02 13:15:38;;;;;;;;;;;42.40;23.20;;;;;;5043182;28;20029;-96
2022/07/02 13:18:03;;;;;;;;;;;42.60;23.60;;;;;;5042394;28;19995;-96
2022/07/02 13:20:29;;;;;;;;;;;42.50;25.50;;;;;;5047607;28;19951;-96
2022/07/02 13:22:55;;;;;;;;;;;42.80;24.60;;;;;;5054391;28;19967;-96
2022/07/02 13:25:22;;;;;;;;;;;43.90;22.20;;;;;;5037435;28;19984;-96
2022/07/02 13:27:48;;;;;;;;;;;44.70;21.50;;;;;;5036832;28;19947;-96
2022/07/02 13:30:15;;;;;;;;;;;45.00;21.50;;;;;;5050316;28;19935;-96
2022/07/02 13:32:41;;;;;;;;;;;44.20;22.90;;;;;;5051828;28;19962;-96
2022/07/02 13:35:08;;;;;;;;;;;43.40;22.30;;;;;;5052183;28;19980;-96
2022/07/02 13:37:34;;;;;;;;;;;43.60;23.10;;;;;;5033246;28;19941;-96
2022/07/02 13:39:59;;;;;;;;;;;42.90;23.10;;;;;;5031496;28;19954;-96
2022/07/02 13:42:25;;;;;;;;;;;42.90;23.50;;;;;;5030642;28;19941;-96
2022/07/02 13:44:51;;;;;;;;;;;42.40;23.40;;;;;;5050138;28;20299;-96
2022/07/02 13:47:16;;;;;;;;;;;42.80;25.40;;;;;;5049489;28;19943;-96
2022/07/02 13:49:45;;;;;;;;;;;42.70;25.60;;;;;;5051878;28;19980;-96
2022/07/02 13:52:11;;;;;;;;;;;42.80;24.30;;;;;;5052505;28;19949;-96
2022/07/02 13:54:38;;;;;;;;;;;43.10;24.90;;;;;;5036893;28;19967;-96
2022/07/02 13:57:04;;;;;;;;;;;43.20;24.40;;;;;;5054105;28;19923;-96
2022/07/02 13:59:29;;;;;;;;;;;43.90;22.50;;;;;;5050745;28;19975;-96
2022/07/02 14:01:56;;;;;;;;;;;44.00;23.40;;;;;;5049710;28;19936;-96
2022/07/02 14:04:21;;;;;;;;;;;44.00;23.20;;;;;;5031307;28;19948;-96
2022/07/02 14:06:47;;;;;;;;;;;43.20;22.30;;;;;;5049319;28;19944;-96
2022/07/02 14:09:13;;;;;;;;;;;43.10;22.00;;;;;;5029573;28;20366;-96
2022/07/02 14:11:40;;;;;;;;;;;43.10;22.30;;;;;;5029541;28;20417;-96
2022/07/02 14:14:05;;;;;;;;;;;43.50;22.50;;;;;;5031606;28;20035;-96
2022/07/02 14:16:31;;;;;;;;;;;43.90;21.70;;;;;;5050783;28;19954;-96
2022/07/02 14:18:57;;;;;;;;;;;43.60;22.90;;;;;;5033126;28;19963;-96
2022/07/02 14:21:23;;;;;;;;;;;43.60;22.80;;;;;;5031964;28;19974;-96
2022/07/02 14:23:48;;;;;;;;;;;43.70;23.90;;;;;;5029921;28;19953;-96
2022/07/02 14:26:14;;;;;;;;;;;43.50;23.20;;;;;;5028374;28;20048;-96